الصفحة الرئيسية
METAR-TAF:

METAR-TAF

مطار :

Ponta Delgada, الأزور, البرتغال

دائرة عرض: 37-44N, خط طول: 025-42W, ارتفاع: 71 متر

مراقبة الطقس الحالي

تاريخ ووقت الإصدار 33 دقيقة قبل الساعة 02:30UTC
ريح 11 عقدة من الشمال
درجة الحرارة 16°درجة مئوية
الرطوبة 88%
ضغط 1026 hPa
الرؤية 10 كم أو أكثر
غيوم قليلة على ارتفاع 700 قدم
غيوم متفرقة على ارتفاع 1000 قدم
غيوم مفككة على ارتفاع 2200 قدم

METAR: LPPD 220230Z 01011KT 9999 FEW007 SCT010 BKN022 16/14 Q1026

زمن: 03:03 (03:03 UTC)

توقعات

تاريخ ووقت الإصدار 4ساعات و 3 دقيقة قبل الساعة 23:00UTC
التوقعات صالحة من22 الساعة 00 UTC إلى 22 الساعة 24 UTC
ريح 10 عقدة من الشمال
الرؤية 10 كم أو أكثر
غيوم متفرقة على ارتفاع 1300 قدم
غيوم متفرقة على ارتفاع 3000 قدم
نظرية الاحتمالات 30% :
مؤقت
من 22 الساعة 00 UTC إلى 22 الساعة 24 UTC
الرؤية: 5000 متر
غيوم متفرقة على ارتفاع 400 قدم
غيوم مفككة على ارتفاع 800 قدم
رذاذ, مطر, غشاء

TAF: LPPD 212300Z 2200/2224 36010KT 9999 SCT013 SCT030 PROB30 TEMPO 2200/2224 5000 DZRA BR SCT004 BKN008

أرصاد الطقس والتوقعات من أكثر من 4000 مطار (تقارير الطقس للمطار METAR والتنبؤ بالطقس بالمطارTAF).

المحطات المتاحة هي النقط الصفراء والحمراء على الخريطة.

حرك المؤشر فوق النقطة لمعرفة اسم المحطة.

ثم انقر لمعرفة أرصاد وتوقعات الطقس.

لتغيير الخارطة: اضغط على الأزرار الخضراء مع رمز الصليب الأسود للتكبير. على الزر الأخضر مع شرطة للتصغير، أو على الأسهم الخضراء للخرائط المجاورة.


METAR-TAF: